sensor_id;sensor_type;location;lat;lon;timestamp;P1;durP1;ratioP1;P2;durP2;ratioP2
75417;SDS011;63997;52.112;5.420;2024-03-23T00:53:16;23.07;;;6.50;;
75417;SDS011;63997;52.112;5.420;2024-03-23T00:55:42;17.23;;;5.93;;
75417;SDS011;63997;52.112;5.420;2024-03-23T00:58:08;16.73;;;5.97;;
75417;SDS011;63997;52.112;5.420;2024-03-23T01:00:33;24.45;;;6.43;;
75417;SDS011;63997;52.112;5.420;2024-03-23T01:02:59;18.55;;;6.20;;
75417;SDS011;63997;52.112;5.420;2024-03-23T01:05:25;15.47;;;5.93;;
75417;SDS011;63997;52.112;5.420;2024-03-23T01:07:50;24.83;;;6.97;;
75417;SDS011;63997;52.112;5.420;2024-03-23T01:10:16;17.10;;;6.25;;
75417;SDS011;63997;52.112;5.420;2024-03-23T01:12:42;27.20;;;7.40;;
75417;SDS011;63997;52.112;5.420;2024-03-23T01:15:07;22.23;;;6.78;;
75417;SDS011;63997;52.112;5.420;2024-03-23T01:17:33;22.65;;;6.55;;
75417;SDS011;63997;52.112;5.420;2024-03-23T01:19:59;14.70;;;6.40;;
75417;SDS011;63997;52.112;5.420;2024-03-23T01:22:24;20.10;;;6.67;;
75417;SDS011;63997;52.112;5.420;2024-03-23T01:24:50;21.67;;;6.65;;
75417;SDS011;63997;52.112;5.420;2024-03-23T01:27:15;21.93;;;6.60;;
75417;SDS011;63997;52.112;5.420;2024-03-23T01:29:41;21.53;;;6.17;;
75417;SDS011;63997;52.112;5.420;2024-03-23T01:32:06;23.35;;;6.40;;
75417;SDS011;63997;52.112;5.420;2024-03-23T01:34:32;18.07;;;6.50;;
75417;SDS011;63997;52.112;5.420;2024-03-23T01:36:58;19.13;;;6.07;;
75417;SDS011;63997;52.112;5.420;2024-03-23T01:39:24;20.93;;;6.43;;
75417;SDS011;63997;52.112;5.420;2024-03-23T01:41:49;16.40;;;6.57;;
75417;SDS011;63997;52.112;5.420;2024-03-23T01:44:15;23.00;;;6.43;;
75417;SDS011;63997;52.112;5.420;2024-03-23T01:46:41;15.25;;;6.45;;
75417;SDS011;63997;52.112;5.420;2024-03-23T01:49:07;21.65;;;6.18;;
75417;SDS011;63997;52.112;5.420;2024-03-23T01:51:33;23.58;;;6.15;;
75417;SDS011;63997;52.112;5.420;2024-03-23T01:54:00;24.55;;;6.68;;
75417;SDS011;63997;52.112;5.420;2024-03-23T01:56:33;18.93;;;5.63;;
75417;SDS011;63997;52.112;5.420;2024-03-23T01:59:02;15.52;;;5.78;;
75417;SDS011;63997;52.112;5.420;2024-03-23T02:01:29;24.77;;;7.22;;
75417;SDS011;63997;52.112;5.420;2024-03-23T02:03:55;19.77;;;6.30;;
75417;SDS011;63997;52.112;5.420;2024-03-23T02:06:20;21.27;;;5.77;;
75417;SDS011;63997;52.112;5.420;2024-03-23T02:08:47;16.52;;;5.60;;
75417;SDS011;63997;52.112;5.420;2024-03-23T02:11:13;17.10;;;6.25;;
75417;SDS011;63997;52.112;5.420;2024-03-23T02:13:39;19.10;;;6.07;;
75417;SDS011;63997;52.112;5.420;2024-03-23T02:16:05;17.63;;;5.87;;
75417;SDS011;63997;52.112;5.420;2024-03-23T02:18:31;15.27;;;5.82;;
75417;SDS011;63997;52.112;5.420;2024-03-23T02:21:00;16.27;;;5.85;;
75417;SDS011;63997;52.112;5.420;2024-03-23T02:23:26;20.73;;;5.67;;
75417;SDS011;63997;52.112;5.420;2024-03-23T02:25:51;17.77;;;6.00;;
75417;SDS011;63997;52.112;5.420;2024-03-23T02:28:18;15.00;;;5.82;;
75417;SDS011;63997;52.112;5.420;2024-03-23T02:30:45;17.93;;;6.30;;
75417;SDS011;63997;52.112;5.420;2024-03-23T02:33:11;23.38;;;6.25;;
75417;SDS011;63997;52.112;5.420;2024-03-23T02:35:36;24.50;;;6.07;;
75417;SDS011;63997;52.112;5.420;2024-03-23T02:38:02;19.43;;;5.80;;
75417;SDS011;63997;52.112;5.420;2024-03-23T02:40:28;14.63;;;6.07;;
75417;SDS011;63997;52.112;5.420;2024-03-23T02:42:54;16.40;;;5.90;;
75417;SDS011;63997;52.112;5.420;2024-03-23T02:45:20;12.70;;;5.40;;
75417;SDS011;63997;52.112;5.420;2024-03-23T02:47:45;14.33;;;4.97;;
75417;SDS011;63997;52.112;5.420;2024-03-23T02:50:11;16.45;;;6.13;;
75417;SDS011;63997;52.112;5.420;2024-03-23T02:52:38;17.27;;;5.60;;
75417;SDS011;63997;52.112;5.420;2024-03-23T02:55:04;17.95;;;5.30;;
75417;SDS011;63997;52.112;5.420;2024-03-23T02:57:30;15.85;;;4.93;;
75417;SDS011;63997;52.112;5.420;2024-03-23T02:59:55;17.13;;;5.10;;
75417;SDS011;63997;52.112;5.420;2024-03-23T03:02:21;20.55;;;6.28;;
75417;SDS011;63997;52.112;5.420;2024-03-23T03:04:47;15.60;;;5.53;;
75417;SDS011;63997;52.112;5.420;2024-03-23T03:07:13;16.52;;;5.32;;
75417;SDS011;63997;52.112;5.420;2024-03-23T03:09:38;17.67;;;5.40;;
75417;SDS011;63997;52.112;5.420;2024-03-23T03:12:05;20.23;;;5.53;;
75417;SDS011;63997;52.112;5.420;2024-03-23T03:14:31;17.38;;;5.25;;
75417;SDS011;63997;52.112;5.420;2024-03-23T03:16:57;16.47;;;5.33;;
75417;SDS011;63997;52.112;5.420;2024-03-23T03:19:23;18.23;;;4.90;;
75417;SDS011;63997;52.112;5.420;2024-03-23T03:21:48;15.13;;;5.40;;
75417;SDS011;63997;52.112;5.420;2024-03-23T03:24:14;17.15;;;5.18;;
75417;SDS011;63997;52.112;5.420;2024-03-23T03:26:40;16.23;;;5.72;;
75417;SDS011;63997;52.112;5.420;2024-03-23T03:29:05;18.37;;;5.97;;
75417;SDS011;63997;52.112;5.420;2024-03-23T03:31:31;12.43;;;4.17;;
75417;SDS011;63997;52.112;5.420;2024-03-23T03:33:56;10.68;;;4.75;;
75417;SDS011;63997;52.112;5.420;2024-03-23T03:36:22;15.77;;;4.97;;
75417;SDS011;63997;52.112;5.420;2024-03-23T03:38:48;15.30;;;4.67;;
75417;SDS011;63997;52.112;5.420;2024-03-23T03:41:13;12.50;;;5.45;;
75417;SDS011;63997;52.112;5.420;2024-03-23T03:43:39;13.83;;;5.50;;
75417;SDS011;63997;52.112;5.420;2024-03-23T03:46:04;11.57;;;4.93;;
75417;SDS011;63997;52.112;5.420;2024-03-23T03:48:30;9.98;;;4.63;;
75417;SDS011;63997;52.112;5.420;2024-03-23T03:50:56;11.77;;;4.83;;
75417;SDS011;63997;52.112;5.420;2024-03-23T03:53:21;17.25;;;4.40;;
75417;SDS011;63997;52.112;5.420;2024-03-23T03:55:47;13.03;;;4.53;;
75417;SDS011;63997;52.112;5.420;2024-03-23T03:58:12;13.37;;;5.37;;
75417;SDS011;63997;52.112;5.420;2024-03-23T04:00:38;22.23;;;4.97;;
75417;SDS011;63997;52.112;5.420;2024-03-23T04:03:03;10.80;;;4.20;;
75417;SDS011;63997;52.112;5.420;2024-03-23T04:05:29;15.05;;;4.68;;
75417;SDS011;63997;52.112;5.420;2024-03-23T04:07:54;12.17;;;4.20;;
75417;SDS011;63997;52.112;5.420;2024-03-23T04:10:20;10.83;;;4.27;;
75417;SDS011;63997;52.112;5.420;2024-03-23T04:12:46;11.77;;;5.10;;
75417;SDS011;63997;52.112;5.420;2024-03-23T04:15:12;15.68;;;4.85;;
75417;SDS011;63997;52.112;5.420;2024-03-23T04:17:38;8.87;;;3.73;;
75417;SDS011;63997;52.112;5.420;2024-03-23T04:20:04;9.48;;;4.63;;
75417;SDS011;63997;52.112;5.420;2024-03-23T04:22:34;12.10;;;3.73;;
75417;SDS011;63997;52.112;5.420;2024-03-23T04:25:00;7.68;;;3.97;;
75417;SDS011;63997;52.112;5.420;2024-03-23T04:27:32;12.23;;;4.30;;
75417;SDS011;63997;52.112;5.420;2024-03-23T04:30:01;19.67;;;3.92;;
75417;SDS011;63997;52.112;5.420;2024-03-23T04:32:27;17.08;;;3.70;;
75417;SDS011;63997;52.112;5.420;2024-03-23T04:34:53;16.63;;;4.30;;
75417;SDS011;63997;52.112;5.420;2024-03-23T04:37:20;13.95;;;3.65;;
75417;SDS011;63997;52.112;5.420;2024-03-23T04:39:48;9.68;;;4.10;;
75417;SDS011;63997;52.112;5.420;2024-03-23T04:42:14;16.83;;;4.10;;
75417;SDS011;63997;52.112;5.420;2024-03-23T04:44:40;13.50;;;3.90;;
75417;SDS011;63997;52.112;5.420;2024-03-23T04:47:06;9.93;;;3.17;;
75417;SDS011;63997;52.112;5.420;2024-03-23T04:49:32;8.67;;;3.70;;
75417;SDS011;63997;52.112;5.420;2024-03-23T04:51:57;12.60;;;3.83;;
75417;SDS011;63997;52.112;5.420;2024-03-23T04:54:23;12.97;;;3.67;;
75417;SDS011;63997;52.112;5.420;2024-03-23T04:56:49;9.98;;;3.25;;
75417;SDS011;63997;52.112;5.420;2024-03-23T04:59:14;8.17;;;2.97;;
75417;SDS011;63997;52.112;5.420;2024-03-23T05:01:40;16.52;;;3.80;;
75417;SDS011;63997;52.112;5.420;2024-03-23T05:04:07;16.60;;;2.80;;
75417;SDS011;63997;52.112;5.420;2024-03-23T05:06:33;12.27;;;2.83;;
75417;SDS011;63997;52.112;5.420;2024-03-23T05:08:59;13.43;;;2.35;;
75417;SDS011;63997;52.112;5.420;2024-03-23T05:11:27;9.43;;;2.67;;
75417;SDS011;63997;52.112;5.420;2024-03-23T05:13:53;15.57;;;3.13;;
75417;SDS011;63997;52.112;5.420;2024-03-23T05:16:18;11.90;;;2.13;;
75417;SDS011;63997;52.112;5.420;2024-03-23T05:18:44;10.32;;;2.35;;
75417;SDS011;63997;52.112;5.420;2024-03-23T05:21:09;8.33;;;1.87;;
75417;SDS011;63997;52.112;5.420;2024-03-23T05:23:35;8.93;;;2.33;;
75417;SDS011;63997;52.112;5.420;2024-03-23T05:26:01;9.13;;;1.80;;
75417;SDS011;63997;52.112;5.420;2024-03-23T05:28:26;9.10;;;2.10;;
75417;SDS011;63997;52.112;5.420;2024-03-23T05:30:52;11.50;;;1.85;;
75417;SDS011;63997;52.112;5.420;2024-03-23T05:33:19;9.17;;;1.27;;
75417;SDS011;63997;52.112;5.420;2024-03-23T05:35:45;10.20;;;1.80;;
75417;SDS011;63997;52.112;5.420;2024-03-23T05:38:11;8.05;;;2.03;;
75417;SDS011;63997;52.112;5.420;2024-03-23T05:40:36;5.40;;;1.60;;
75417;SDS011;63997;52.112;5.420;2024-03-23T05:43:05;8.25;;;2.05;;
75417;SDS011;63997;52.112;5.420;2024-03-23T05:45:32;7.28;;;1.67;;
75417;SDS011;63997;52.112;5.420;2024-03-23T05:47:58;9.68;;;1.38;;
75417;SDS011;63997;52.112;5.420;2024-03-23T05:50:23;7.20;;;1.63;;
75417;SDS011;63997;52.112;5.420;2024-03-23T05:52:50;8.80;;;2.22;;
75417;SDS011;63997;52.112;5.420;2024-03-23T05:55:15;10.05;;;1.92;;
75417;SDS011;63997;52.112;5.420;2024-03-23T05:57:41;8.13;;;1.73;;
75417;SDS011;63997;52.112;5.420;2024-03-23T06:00:07;7.75;;;1.40;;
75417;SDS011;63997;52.112;5.420;2024-03-23T06:02:44;6.32;;;1.63;;
75417;SDS011;63997;52.112;5.420;2024-03-23T06:05:10;7.40;;;1.20;;
75417;SDS011;63997;52.112;5.420;2024-03-23T06:07:37;7.18;;;1.60;;
75417;SDS011;63997;52.112;5.420;2024-03-23T06:10:04;4.35;;;1.02;;
75417;SDS011;63997;52.112;5.420;2024-03-23T06:12:32;6.13;;;1.30;;
75417;SDS011;63997;52.112;5.420;2024-03-23T06:14:58;5.85;;;1.58;;
75417;SDS011;63997;52.112;5.420;2024-03-23T06:17:23;5.37;;;0.80;;
75417;SDS011;63997;52.112;5.420;2024-03-23T06:19:49;6.03;;;1.33;;
75417;SDS011;63997;52.112;5.420;2024-03-23T06:22:15;6.05;;;1.08;;
75417;SDS011;63997;52.112;5.420;2024-03-23T06:24:40;4.80;;;0.90;;
75417;SDS011;63997;52.112;5.420;2024-03-23T06:27:06;6.60;;;1.33;;
75417;SDS011;63997;52.112;5.420;2024-03-23T06:29:32;13.83;;;1.40;;
75417;SDS011;63997;52.112;5.420;2024-03-23T06:31:57;8.95;;;1.67;;
75417;SDS011;63997;52.112;5.420;2024-03-23T06:34:23;11.50;;;1.63;;
75417;SDS011;63997;52.112;5.420;2024-03-23T06:36:49;7.43;;;0.93;;
75417;SDS011;63997;52.112;5.420;2024-03-23T06:39:15;4.27;;;0.90;;
75417;SDS011;63997;52.112;5.420;2024-03-23T06:41:53;9.48;;;1.05;;
75417;SDS011;63997;52.112;5.420;2024-03-23T06:44:19;7.95;;;1.40;;
75417;SDS011;63997;52.112;5.420;2024-03-23T06:46:45;4.50;;;1.00;;
75417;SDS011;63997;52.112;5.420;2024-03-23T06:49:11;4.47;;;0.90;;
75417;SDS011;63997;52.112;5.420;2024-03-23T06:51:37;5.07;;;1.17;;
75417;SDS011;63997;52.112;5.420;2024-03-23T06:54:03;5.60;;;1.10;;
75417;SDS011;63997;52.112;5.420;2024-03-23T06:56:30;10.68;;;1.17;;
75417;SDS011;63997;52.112;5.420;2024-03-23T06:58:56;4.33;;;0.77;;
75417;SDS011;63997;52.112;5.420;2024-03-23T07:01:22;7.38;;;0.98;;
75417;SDS011;63997;52.112;5.420;2024-03-23T07:03:48;2.83;;;1.50;;
75417;SDS011;63997;52.112;5.420;2024-03-23T07:06:14;3.87;;;1.03;;
75417;SDS011;63997;52.112;5.420;2024-03-23T07:08:39;10.38;;;1.40;;
75417;SDS011;63997;52.112;5.420;2024-03-23T07:11:05;8.23;;;1.10;;
75417;SDS011;63997;52.112;5.420;2024-03-23T07:13:31;13.00;;;1.73;;
75417;SDS011;63997;52.112;5.420;2024-03-23T07:15:56;5.63;;;1.15;;
75417;SDS011;63997;52.112;5.420;2024-03-23T07:18:23;4.70;;;0.95;;
75417;SDS011;63997;52.112;5.420;2024-03-23T07:20:55;6.17;;;0.93;;
75417;SDS011;63997;52.112;5.420;2024-03-23T07:23:22;8.50;;;1.50;;
75417;SDS011;63997;52.112;5.420;2024-03-23T07:26:01;4.38;;;1.20;;
75417;SDS011;63997;52.112;5.420;2024-03-23T07:28:28;6.07;;;1.47;;
75417;SDS011;63997;52.112;5.420;2024-03-23T07:33:36;9.88;;;1.40;;
75417;SDS011;63997;52.112;5.420;2024-03-23T07:36:06;7.93;;;1.65;;
75417;SDS011;63997;52.112;5.420;2024-03-23T07:38:32;8.63;;;1.43;;
75417;SDS011;63997;52.112;5.420;2024-03-23T07:41:08;13.45;;;1.75;;
75417;SDS011;63997;52.112;5.420;2024-03-23T07:43:35;6.32;;;1.83;;
75417;SDS011;63997;52.112;5.420;2024-03-23T07:46:01;8.33;;;1.47;;
75417;SDS011;63997;52.112;5.420;2024-03-23T07:48:28;8.85;;;1.80;;
75417;SDS011;63997;52.112;5.420;2024-03-23T07:50:58;6.17;;;1.43;;
75417;SDS011;63997;52.112;5.420;2024-03-23T07:53:33;11.20;;;1.40;;
75417;SDS011;63997;52.112;5.420;2024-03-23T07:56:03;7.22;;;1.00;;
75417;SDS011;63997;52.112;5.420;2024-03-23T07:58:29;6.80;;;1.25;;
75417;SDS011;63997;52.112;5.420;2024-03-23T08:00:55;13.00;;;1.73;;
75417;SDS011;63997;52.112;5.420;2024-03-23T08:03:22;9.07;;;1.53;;
75417;SDS011;63997;52.112;5.420;2024-03-23T08:05:48;6.60;;;1.80;;
75417;SDS011;63997;52.112;5.420;2024-03-23T08:08:13;5.32;;;0.85;;
75417;SDS011;63997;52.112;5.420;2024-03-23T08:13:15;7.38;;;1.50;;
75417;SDS011;63997;52.112;5.420;2024-03-23T08:15:41;5.47;;;1.10;;
75417;SDS011;63997;52.112;5.420;2024-03-23T08:18:06;5.70;;;1.10;;
75417;SDS011;63997;52.112;5.420;2024-03-23T08:20:32;7.10;;;0.98;;
75417;SDS011;63997;52.112;5.420;2024-03-23T08:22:58;7.67;;;1.13;;
75417;SDS011;63997;52.112;5.420;2024-03-23T08:25:24;8.20;;;1.50;;
75417;SDS011;63997;52.112;5.420;2024-03-23T08:27:49;9.13;;;1.00;;
75417;SDS011;63997;52.112;5.420;2024-03-23T08:30:15;6.03;;;1.00;;
75417;SDS011;63997;52.112;5.420;2024-03-23T08:32:41;7.13;;;1.13;;
75417;SDS011;63997;52.112;5.420;2024-03-23T08:35:07;9.32;;;1.10;;
75417;SDS011;63997;52.112;5.420;2024-03-23T08:37:33;6.90;;;0.83;;
75417;SDS011;63997;52.112;5.420;2024-03-23T08:39:59;6.78;;;1.60;;
75417;SDS011;63997;52.112;5.420;2024-03-23T08:42:24;4.40;;;0.70;;
75417;SDS011;63997;52.112;5.420;2024-03-23T08:44:50;6.43;;;0.97;;
75417;SDS011;63997;52.112;5.420;2024-03-23T08:47:16;4.03;;;0.80;;
75417;SDS011;63997;52.112;5.420;2024-03-23T08:49:41;6.83;;;0.83;;
75417;SDS011;63997;52.112;5.420;2024-03-23T08:52:07;3.35;;;0.55;;
75417;SDS011;63997;52.112;5.420;2024-03-23T08:54:33;14.90;;;1.33;;
75417;SDS011;63997;52.112;5.420;2024-03-23T08:56:59;5.72;;;0.93;;
75417;SDS011;63997;52.112;5.420;2024-03-23T08:59:25;9.52;;;2.15;;
75417;SDS011;63997;52.112;5.420;2024-03-23T09:01:51;3.95;;;0.70;;
75417;SDS011;63997;52.112;5.420;2024-03-23T09:04:16;7.80;;;0.87;;
75417;SDS011;63997;52.112;5.420;2024-03-23T09:06:42;4.40;;;1.00;;
75417;SDS011;63997;52.112;5.420;2024-03-23T09:09:08;6.68;;;0.60;;
75417;SDS011;63997;52.112;5.420;2024-03-23T09:11:34;4.63;;;0.60;;
75417;SDS011;63997;52.112;5.420;2024-03-23T09:14:00;4.77;;;1.17;;
75417;SDS011;63997;52.112;5.420;2024-03-23T09:16:26;3.42;;;0.57;;
75417;SDS011;63997;52.112;5.420;2024-03-23T09:18:51;3.13;;;0.63;;
75417;SDS011;63997;52.112;5.420;2024-03-23T09:21:17;13.82;;;1.00;;
75417;SDS011;63997;52.112;5.420;2024-03-23T09:23:43;9.83;;;0.87;;
75417;SDS011;63997;52.112;5.420;2024-03-23T09:26:09;8.82;;;1.10;;
75417;SDS011;63997;52.112;5.420;2024-03-23T09:28:34;7.53;;;0.60;;
75417;SDS011;63997;52.112;5.420;2024-03-23T09:31:04;7.53;;;0.50;;
75417;SDS011;63997;52.112;5.420;2024-03-23T09:33:30;7.72;;;0.77;;
75417;SDS011;63997;52.112;5.420;2024-03-23T09:35:55;2.77;;;0.50;;
75417;SDS011;63997;52.112;5.420;2024-03-23T09:38:22;6.05;;;0.55;;
75417;SDS011;63997;52.112;5.420;2024-03-23T09:40:48;10.25;;;1.70;;
75417;SDS011;63997;52.112;5.420;2024-03-23T09:43:18;3.42;;;0.80;;
75417;SDS011;63997;52.112;5.420;2024-03-23T09:45:44;5.47;;;0.70;;
75417;SDS011;63997;52.112;5.420;2024-03-23T09:48:10;8.88;;;0.93;;
75417;SDS011;63997;52.112;5.420;2024-03-23T09:50:39;5.30;;;0.70;;
75417;SDS011;63997;52.112;5.420;2024-03-23T09:53:06;5.45;;;0.57;;
75417;SDS011;63997;52.112;5.420;2024-03-23T09:55:33;3.27;;;0.60;;
75417;SDS011;63997;52.112;5.420;2024-03-23T09:58:01;3.42;;;0.50;;
75417;SDS011;63997;52.112;5.420;2024-03-23T10:00:27;3.95;;;0.70;;
75417;SDS011;63997;52.112;5.420;2024-03-23T10:02:56;4.90;;;0.50;;
75417;SDS011;63997;52.112;5.420;2024-03-23T10:05:27;6.05;;;0.65;;
75417;SDS011;63997;52.112;5.420;2024-03-23T10:07:53;8.27;;;0.85;;
75417;SDS011;63997;52.112;5.420;2024-03-23T10:10:19;6.97;;;1.13;;
75417;SDS011;63997;52.112;5.420;2024-03-23T10:12:50;9.15;;;0.90;;
75417;SDS011;63997;52.112;5.420;2024-03-23T10:15:19;8.45;;;1.52;;
75417;SDS011;63997;52.112;5.420;2024-03-23T10:17:46;6.40;;;1.55;;
75417;SDS011;63997;52.112;5.420;2024-03-23T10:20:12;7.70;;;0.70;;
75417;SDS011;63997;52.112;5.420;2024-03-23T10:22:44;3.63;;;0.60;;
75417;SDS011;63997;52.112;5.420;2024-03-23T10:25:10;5.07;;;0.65;;
75417;SDS011;63997;52.112;5.420;2024-03-23T10:27:36;4.97;;;0.60;;
75417;SDS011;63997;52.112;5.420;2024-03-23T10:30:09;9.23;;;0.97;;
75417;SDS011;63997;52.112;5.420;2024-03-23T10:32:36;6.43;;;0.73;;
75417;SDS011;63997;52.112;5.420;2024-03-23T10:35:18;8.27;;;1.27;;
75417;SDS011;63997;52.112;5.420;2024-03-23T10:37:45;6.80;;;0.95;;
75417;SDS011;63997;52.112;5.420;2024-03-23T10:40:17;4.23;;;0.83;;
75417;SDS011;63997;52.112;5.420;2024-03-23T10:42:46;7.53;;;0.85;;
75417;SDS011;63997;52.112;5.420;2024-03-23T10:45:12;4.20;;;0.50;;
75417;SDS011;63997;52.112;5.420;2024-03-23T10:47:38;3.43;;;0.60;;
75417;SDS011;63997;52.112;5.420;2024-03-23T10:50:03;4.75;;;0.50;;
75417;SDS011;63997;52.112;5.420;2024-03-23T10:52:33;7.60;;;0.60;;
75417;SDS011;63997;52.112;5.420;2024-03-23T10:54:58;3.83;;;0.57;;
75417;SDS011;63997;52.112;5.420;2024-03-23T10:57:30;3.38;;;0.40;;
75417;SDS011;63997;52.112;5.420;2024-03-23T11:00:03;8.00;;;0.88;;
75417;SDS011;63997;52.112;5.420;2024-03-23T11:02:29;3.28;;;0.45;;
75417;SDS011;63997;52.112;5.420;2024-03-23T11:04:55;4.50;;;0.80;;
75417;SDS011;63997;52.112;5.420;2024-03-23T11:09:49;2.90;;;0.40;;
75417;SDS011;63997;52.112;5.420;2024-03-23T11:14:47;4.30;;;0.50;;
75417;SDS011;63997;52.112;5.420;2024-03-23T11:17:22;5.50;;;0.70;;
75417;SDS011;63997;52.112;5.420;2024-03-23T11:20:24;5.13;;;0.70;;
75417;SDS011;63997;52.112;5.420;2024-03-23T11:22:56;4.13;;;0.70;;
75417;SDS011;63997;52.112;5.420;2024-03-23T11:25:22;8.57;;;1.10;;
75417;SDS011;63997;52.112;5.420;2024-03-23T11:27:52;4.37;;;0.77;;
75417;SDS011;63997;52.112;5.420;2024-03-23T11:30:20;5.95;;;0.70;;
75417;SDS011;63997;52.112;5.420;2024-03-23T11:32:56;8.05;;;1.15;;
75417;SDS011;63997;52.112;5.420;2024-03-23T11:35:29;4.43;;;1.13;;
75417;SDS011;63997;52.112;5.420;2024-03-23T11:38:01;7.45;;;0.68;;
75417;SDS011;63997;52.112;5.420;2024-03-23T11:40:31;2.50;;;0.70;;
75417;SDS011;63997;52.112;5.420;2024-03-23T11:42:59;4.05;;;0.60;;
75417;SDS011;63997;52.112;5.420;2024-03-23T11:45:29;6.70;;;1.30;;
75417;SDS011;63997;52.112;5.420;2024-03-23T11:48:10;5.05;;;0.60;;
75417;SDS011;63997;52.112;5.420;2024-03-23T11:50:43;2.85;;;0.60;;
75417;SDS011;63997;52.112;5.420;2024-03-23T11:53:20;4.77;;;0.80;;
75417;SDS011;63997;52.112;5.420;2024-03-23T11:55:55;7.80;;;1.38;;
75417;SDS011;63997;52.112;5.420;2024-03-23T11:58:25;6.90;;;0.80;;
75417;SDS011;63997;52.112;5.420;2024-03-23T12:03:25;6.05;;;0.60;;
75417;SDS011;63997;52.112;5.420;2024-03-23T12:05:52;5.97;;;0.70;;
75417;SDS011;63997;52.112;5.420;2024-03-23T12:08:19;3.65;;;0.73;;
75417;SDS011;63997;52.112;5.420;2024-03-23T12:11:06;3.85;;;0.70;;
75417;SDS011;63997;52.112;5.420;2024-03-23T12:13:34;5.43;;;0.90;;
75417;SDS011;63997;52.112;5.420;2024-03-23T12:16:18;7.97;;;0.60;;
75417;SDS011;63997;52.112;5.420;2024-03-23T12:18:46;6.72;;;1.00;;
75417;SDS011;63997;52.112;5.420;2024-03-23T12:21:14;4.30;;;1.83;;
75417;SDS011;63997;52.112;5.420;2024-03-23T12:23:40;9.20;;;0.70;;
75417;SDS011;63997;52.112;5.420;2024-03-23T12:26:07;2.15;;;0.50;;
75417;SDS011;63997;52.112;5.420;2024-03-23T12:28:33;5.53;;;0.60;;
75417;SDS011;63997;52.112;5.420;2024-03-23T12:31:02;5.20;;;0.75;;
75417;SDS011;63997;52.112;5.420;2024-03-23T12:33:28;13.47;;;1.73;;
75417;SDS011;63997;52.112;5.420;2024-03-23T12:35:54;4.45;;;1.65;;
75417;SDS011;63997;52.112;5.420;2024-03-23T12:38:19;3.30;;;0.70;;
75417;SDS011;63997;52.112;5.420;2024-03-23T12:40:48;6.45;;;0.60;;
75417;SDS011;63997;52.112;5.420;2024-03-23T12:43:14;7.90;;;1.13;;
75417;SDS011;63997;52.112;5.420;2024-03-23T12:45:40;6.28;;;0.80;;
75417;SDS011;63997;52.112;5.420;2024-03-23T12:48:06;4.32;;;0.82;;
75417;SDS011;63997;52.112;5.420;2024-03-23T12:50:32;5.83;;;1.13;;
75417;SDS011;63997;52.112;5.420;2024-03-23T12:52:58;4.53;;;0.55;;
75417;SDS011;63997;52.112;5.420;2024-03-23T12:55:23;5.97;;;0.70;;
75417;SDS011;63997;52.112;5.420;2024-03-23T12:57:49;4.82;;;0.50;;
75417;SDS011;63997;52.112;5.420;2024-03-23T13:00:15;4.03;;;0.90;;
75417;SDS011;63997;52.112;5.420;2024-03-23T13:02:43;5.28;;;0.60;;
75417;SDS011;63997;52.112;5.420;2024-03-23T13:05:09;6.22;;;0.55;;
75417;SDS011;63997;52.112;5.420;2024-03-23T13:07:35;3.80;;;0.47;;
75417;SDS011;63997;52.112;5.420;2024-03-23T13:10:02;4.93;;;0.60;;
75417;SDS011;63997;52.112;5.420;2024-03-23T13:12:29;6.93;;;0.70;;
75417;SDS011;63997;52.112;5.420;2024-03-23T13:14:54;8.23;;;1.00;;
75417;SDS011;63997;52.112;5.420;2024-03-23T13:17:20;5.55;;;0.82;;
75417;SDS011;63997;52.112;5.420;2024-03-23T13:19:45;4.50;;;0.63;;
75417;SDS011;63997;52.112;5.420;2024-03-23T13:22:12;4.72;;;0.65;;
75417;SDS011;63997;52.112;5.420;2024-03-23T13:24:38;6.80;;;1.00;;
75417;SDS011;63997;52.112;5.420;2024-03-23T13:27:04;3.78;;;0.52;;
75417;SDS011;63997;52.112;5.420;2024-03-23T13:29:33;1.45;;;0.28;;
75417;SDS011;63997;52.112;5.420;2024-03-23T13:32:00;5.95;;;0.68;;
75417;SDS011;63997;52.112;5.420;2024-03-23T13:34:25;2.57;;;0.30;;
75417;SDS011;63997;52.112;5.420;2024-03-23T13:36:51;5.67;;;0.50;;
75417;SDS011;63997;52.112;5.420;2024-03-23T13:39:16;0.75;;;0.10;;
75417;SDS011;63997;52.112;5.420;2024-03-23T13:41:45;1.33;;;0.17;;
75417;SDS011;63997;52.112;5.420;2024-03-23T13:44:12;1.98;;;0.20;;
75417;SDS011;63997;52.112;5.420;2024-03-23T13:46:39;0.93;;;0.20;;
75417;SDS011;63997;52.112;5.420;2024-03-23T13:49:08;3.75;;;0.45;;
75417;SDS011;63997;52.112;5.420;2024-03-23T13:51:49;4.13;;;0.70;;
75417;SDS011;63997;52.112;5.420;2024-03-23T13:54:15;3.87;;;0.30;;
75417;SDS011;63997;52.112;5.420;2024-03-23T13:56:41;4.10;;;0.40;;
75417;SDS011;63997;52.112;5.420;2024-03-23T13:59:06;5.47;;;0.40;;
75417;SDS011;63997;52.112;5.420;2024-03-23T14:01:32;4.03;;;0.57;;
75417;SDS011;63997;52.112;5.420;2024-03-23T14:03:57;5.60;;;0.50;;
75417;SDS011;63997;52.112;5.420;2024-03-23T14:06:23;3.23;;;0.57;;
75417;SDS011;63997;52.112;5.420;2024-03-23T14:08:49;5.10;;;0.90;;
75417;SDS011;63997;52.112;5.420;2024-03-23T14:11:14;6.15;;;0.52;;
75417;SDS011;63997;52.112;5.420;2024-03-23T14:13:40;6.80;;;0.53;;
75417;SDS011;63997;52.112;5.420;2024-03-23T14:16:06;1.97;;;0.60;;
75417;SDS011;63997;52.112;5.420;2024-03-23T14:18:31;5.20;;;0.82;;
75417;SDS011;63997;52.112;5.420;2024-03-23T14:20:58;3.40;;;0.67;;
75417;SDS011;63997;52.112;5.420;2024-03-23T14:23:25;10.63;;;0.80;;
75417;SDS011;63997;52.112;5.420;2024-03-23T14:25:58;5.70;;;0.60;;
75417;SDS011;63997;52.112;5.420;2024-03-23T14:28:24;3.28;;;0.82;;
75417;SDS011;63997;52.112;5.420;2024-03-23T14:30:50;4.65;;;0.63;;
75417;SDS011;63997;52.112;5.420;2024-03-23T14:33:17;9.90;;;0.67;;
75417;SDS011;63997;52.112;5.420;2024-03-23T14:35:43;3.83;;;0.50;;
75417;SDS011;63997;52.112;5.420;2024-03-23T14:38:18;6.75;;;1.10;;
75417;SDS011;63997;52.112;5.420;2024-03-23T14:40:44;7.75;;;1.08;;
75417;SDS011;63997;52.112;5.420;2024-03-23T14:43:10;3.80;;;0.70;;
75417;SDS011;63997;52.112;5.420;2024-03-23T14:45:35;2.57;;;0.43;;
75417;SDS011;63997;52.112;5.420;2024-03-23T14:48:02;5.03;;;1.15;;
75417;SDS011;63997;52.112;5.420;2024-03-23T14:50:27;2.33;;;0.50;;
75417;SDS011;63997;52.112;5.420;2024-03-23T14:52:53;3.53;;;0.98;;
75417;SDS011;63997;52.112;5.420;2024-03-23T14:55:19;3.03;;;0.20;;
75417;SDS011;63997;52.112;5.420;2024-03-23T14:57:44;5.00;;;0.55;;
75417;SDS011;63997;52.112;5.420;2024-03-23T15:00:10;5.20;;;1.00;;
75417;SDS011;63997;52.112;5.420;2024-03-23T15:02:37;4.57;;;0.77;;
75417;SDS011;63997;52.112;5.420;2024-03-23T15:05:03;5.68;;;0.55;;
75417;SDS011;63997;52.112;5.420;2024-03-23T15:07:38;5.03;;;1.33;;
75417;SDS011;63997;52.112;5.420;2024-03-23T15:10:05;4.60;;;0.60;;
75417;SDS011;63997;52.112;5.420;2024-03-23T15:12:31;1.80;;;0.50;;
75417;SDS011;63997;52.112;5.420;2024-03-23T15:15:00;4.30;;;0.50;;
75417;SDS011;63997;52.112;5.420;2024-03-23T15:17:25;5.07;;;0.80;;
75417;SDS011;63997;52.112;5.420;2024-03-23T15:19:51;2.58;;;0.32;;
75417;SDS011;63997;52.112;5.420;2024-03-23T15:22:19;4.65;;;1.27;;
75417;SDS011;63997;52.112;5.420;2024-03-23T15:24:45;3.72;;;0.57;;
75417;SDS011;63997;52.112;5.420;2024-03-23T15:27:11;3.43;;;0.43;;
75417;SDS011;63997;52.112;5.420;2024-03-23T15:29:36;2.60;;;0.20;;
75417;SDS011;63997;52.112;5.420;2024-03-23T15:32:02;3.50;;;0.50;;
75417;SDS011;63997;52.112;5.420;2024-03-23T15:34:28;4.10;;;0.40;;
75417;SDS011;63997;52.112;5.420;2024-03-23T15:36:54;4.50;;;0.67;;
75417;SDS011;63997;52.112;5.420;2024-03-23T15:39:20;11.25;;;1.00;;
75417;SDS011;63997;52.112;5.420;2024-03-23T15:41:47;2.28;;;0.75;;
75417;SDS011;63997;52.112;5.420;2024-03-23T15:44:13;5.50;;;0.90;;
75417;SDS011;63997;52.112;5.420;2024-03-23T15:46:39;6.13;;;0.60;;